Accueil
METAR-TAF:

METAR-TAF

Aéroports :

Laupheim, Allemagne

latitude: 48-13N, longitude: 009-55E, altitude: 538 m

Observation

Le bulletin a été fait il y a 11 minutes, à 13:20 UTC
Vent 16 kt de ouest/sud-ouest
Température 11°C
Humidité 54%
Pression 1016 hPa
Visibilité 10 km ou plus
Nuages épars à une hauteur de 3800 ft, Cumulonimbus.
Nuages épars à une hauteur de 5000 ft
averses à proximité

METAR: ETHL 221320Z 25016KT 9999 VCSH SCT038CB SCT050 11/02 Q1016 BLU+

Heure: 15:31 (13:31 UTC)


TAF: absent

Observations et prévisions météorologiques de plus de 4000 aéroports (messages METAR et TAF).

Les stations disponibles sont représentées par des disques jaunes et rouges sur la carte.

Passer la souris dessus pour voir le nom de la station.

Cliquer dessus pour voir les observations et prévisions météorologiques.

Pour changer de carte: cliquez sur les boutons verts avec une croix noire pour zoomer, sur le bouton vert avec un tiret pour effectuer un zoom arrière, ou sur les flèches vertes pour les cartes adjacentes.


METAR-TAF: